Private Wetterstation Sandau
Wetterdaten: Mittwoch, 11.07.2012
Datum Zeit Temp. A. Feuchte A. Luftdruck Regen Wind Richtung Richtung Taupunkt Windchill
11.07.2012 00:01 18,2 C 76 % 1011,8 hPa 0,0 l/m 1,4 km/h (1 Bft) S-SW 202 13,9 C 18,2 C
11.07.2012 00:06 18,1 C 76 % 1011,7 hPa 0,0 l/m 0,0 km/h (0 Bft) S-SW 202 13,8 C 18,1 C
11.07.2012 00:11 18,0 C 77 % 1011,7 hPa 0,0 l/m 2,5 km/h (1 Bft) S-SW 202 13,9 C 18,0 C
11.07.2012 00:16 18,0 C 77 % 1011,7 hPa 0,0 l/m 3,2 km/h (1 Bft) SO 135 13,9 C 18,0 C
11.07.2012 00:21 17,9 C 78 % 1011,7 hPa 0,0 l/m 1,1 km/h (1 Bft) SO 135 14,0 C 17,9 C
11.07.2012 00:26 17,8 C 78 % 1011,5 hPa 0,0 l/m 2,5 km/h (1 Bft) SO 135 13,9 C 17,8 C
11.07.2012 00:31 17,8 C 78 % 1011,7 hPa 0,0 l/m 0,0 km/h (0 Bft) SO 135 13,9 C 17,8 C
11.07.2012 00:36 17,7 C 79 % 1011,6 hPa 0,0 l/m 0,0 km/h (0 Bft) SO 135 14,0 C 17,7 C
11.07.2012 00:41 17,6 C 79 % 1011,6 hPa 0,0 l/m 0,0 km/h (0 Bft) SO 135 13,9 C 17,6 C
11.07.2012 00:46 17,5 C 79 % 1011,5 hPa 0,0 l/m 2,5 km/h (1 Bft) S-SO 157 13,8 C 17,5 C
11.07.2012 00:51 17,4 C 80 % 1011,5 hPa 0,0 l/m 4,3 km/h (1 Bft) SO 135 13,9 C 17,4 C
11.07.2012 00:56 17,3 C 80 % 1011,5 hPa 0,0 l/m 3,2 km/h (1 Bft) SO 135 13,8 C 17,3 C
11.07.2012 01:01 17,1 C 80 % 1011,5 hPa 0,0 l/m 2,9 km/h (1 Bft) O-SO 112 13,6 C 17,1 C
11.07.2012 01:06 17,0 C 81 % 1011,4 hPa 0,0 l/m 0,0 km/h (0 Bft) SO 135 13,7 C 17,0 C
11.07.2012 01:11 16,9 C 81 % 1011,4 hPa 0,0 l/m 0,0 km/h (0 Bft) SO 135 13,6 C 16,9 C
11.07.2012 01:16 16,8 C 81 % 1011,3 hPa 0,0 l/m 0,0 km/h (0 Bft) SO 135 13,5 C 16,8 C
11.07.2012 01:21 16,8 C 82 % 1011,3 hPa 0,0 l/m 0,0 km/h (0 Bft) SO 135 13,7 C 16,8 C
11.07.2012 01:26 16,8 C 82 % 1011,4 hPa 0,0 l/m 0,0 km/h (0 Bft) SO 135 13,7 C 16,8 C
11.07.2012 01:31 16,7 C 82 % 1011,3 hPa 0,0 l/m 0,0 km/h (0 Bft) SO 135 13,6 C 16,7 C
11.07.2012 01:36 16,7 C 83 % 1011,3 hPa 0,0 l/m 0,0 km/h (0 Bft) SO 135 13,8 C 16,7 C
11.07.2012 01:41 16,7 C 83 % 1011,3 hPa 0,0 l/m 0,0 km/h (0 Bft) SO 135 13,8 C 16,7 C
11.07.2012 01:46 16,7 C 83 % 1011,3 hPa 0,0 l/m 0,0 km/h (0 Bft) SO 135 13,8 C 16,7 C
11.07.2012 01:51 16,8 C 83 % 1011,2 hPa 0,0 l/m 0,0 km/h (0 Bft) SO 135 13,9 C 16,8 C
11.07.2012 01:56 16,6 C 83 % 1011,3 hPa 0,0 l/m 0,0 km/h (0 Bft) SO 135 13,7 C 16,6 C
11.07.2012 02:01 16,6 C 83 % 1011,2 hPa 0,0 l/m 0,0 km/h (0 Bft) SO 135 13,7 C 16,6 C
11.07.2012 02:06 16,5 C 83 % 1011,3 hPa 0,0 l/m 0,0 km/h (0 Bft) SO 135 13,6 C 16,5 C
11.07.2012 02:11 16,3 C 83 % 1011,2 hPa 0,0 l/m 0,0 km/h (0 Bft) SO 135 13,4 C 16,3 C
11.07.2012 02:16 16,2 C 83 % 1011,1 hPa 0,0 l/m 0,0 km/h (0 Bft) SO 135 13,3 C 16,2 C
11.07.2012 02:21 16,1 C 84 % 1011,1 hPa 0,0 l/m 0,0 km/h (0 Bft) SO 135 13,4 C 16,1 C
11.07.2012 02:26 16,0 C 84 % 1011,1 hPa 0,0 l/m 0,0 km/h (0 Bft) SO 135 13,3 C 16,0 C
11.07.2012 02:31 15,9 C 84 % 1011,3 hPa 0,0 l/m 0,0 km/h (0 Bft) SO 135 13,2 C 15,9 C
11.07.2012 02:36 15,7 C 85 % 1011,3 hPa 0,0 l/m 0,0 km/h (0 Bft) W-NW 292 13,2 C 15,7 C
11.07.2012 02:41 15,6 C 85 % 1011,3 hPa 0,0 l/m 0,0 km/h (0 Bft) W-NW 292 13,1 C 15,6 C
11.07.2012 02:46 15,5 C 86 % 1011,3 hPa 0,0 l/m 1,4 km/h (1 Bft) W 270 13,2 C 15,5 C
11.07.2012 02:51 15,4 C 86 % 1011,4 hPa 0,0 l/m 0,0 km/h (0 Bft) W 270 13,1 C 15,4 C
11.07.2012 02:56 15,4 C 86 % 1011,4 hPa 0,0 l/m 3,2 km/h (1 Bft) SW 225 13,1 C 15,4 C
11.07.2012 03:01 15,4 C 87 % 1011,4 hPa 0,0 l/m 1,4 km/h (1 Bft) SW 225 13,2 C 15,4 C
11.07.2012 03:06 15,4 C 87 % 1011,6 hPa 0,0 l/m 1,1 km/h (1 Bft) W-SW 247 13,2 C 15,4 C
11.07.2012 03:11 15,4 C 87 % 1011,5 hPa 0,0 l/m 0,0 km/h (0 Bft) W-SW 247 13,2 C 15,4 C
11.07.2012 03:16 15,4 C 87 % 1011,6 hPa 0,0 l/m 2,5 km/h (1 Bft) W-SW 247 13,2 C 15,4 C
11.07.2012 03:21 15,3 C 87 % 1011,5 hPa 0,0 l/m 4,3 km/h (1 Bft) W-SW 247 13,1 C 15,3 C
11.07.2012 03:26 15,3 C 87 % 1011,6 hPa 0,0 l/m 1,8 km/h (1 Bft) W-SW 247 13,1 C 15,3 C
11.07.2012 03:31 15,3 C 87 % 1011,6 hPa 0,0 l/m 1,1 km/h (1 Bft) W 270 13,1 C 15,3 C
11.07.2012 03:36 15,3 C 87 % 1011,4 hPa 0,0 l/m 3,2 km/h (1 Bft) W-SW 247 13,1 C 15,3 C
11.07.2012 03:41 15,2 C 87 % 1011,4 hPa 0,0 l/m 2,2 km/h (1 Bft) SW 225 13,0 C 15,2 C
11.07.2012 03:46 15,2 C 87 % 1011,1 hPa 0,0 l/m 2,5 km/h (1 Bft) W-SW 247 13,0 C 15,2 C
11.07.2012 03:51 15,2 C 87 % 1011,1 hPa 0,0 l/m 0,0 km/h (0 Bft) W 270 13,0 C 15,2 C
11.07.2012 03:56 15,2 C 87 % 1011,1 hPa 0,0 l/m 2,5 km/h (1 Bft) SW 225 13,0 C 15,2 C
11.07.2012 04:01 15,2 C 87 % 1011,0 hPa 0,0 l/m 0,0 km/h (0 Bft) SW 225 13,0 C 15,2 C
11.07.2012 04:06 15,0 C 87 % 1011,0 hPa 0,0 l/m 0,0 km/h (0 Bft) SW 225 12,9 C 15,0 C
11.07.2012 04:11 15,0 C 87 % 1010,9 hPa 0,0 l/m 0,0 km/h (0 Bft) SW 225 12,9 C 15,0 C
11.07.2012 04:16 14,9 C 87 % 1011,0 hPa 0,0 l/m 0,0 km/h (0 Bft) SW 225 12,8 C 14,9 C
11.07.2012 04:21 14,9 C 87 % 1011,0 hPa 0,0 l/m 0,0 km/h (0 Bft) SW 225 12,8 C 14,9 C
11.07.2012 04:26 14,9 C 87 % 1010,9 hPa 0,0 l/m 0,0 km/h (0 Bft) SW 225 12,8 C 14,9 C
11.07.2012 04:31 14,9 C 87 % 1010,9 hPa 0,0 l/m 0,0 km/h (0 Bft) SW 225 12,8 C 14,9 C
11.07.2012 04:36 14,9 C 87 % 1010,9 hPa 0,0 l/m 0,0 km/h (0 Bft) SW 225 12,8 C 14,9 C
11.07.2012 04:41 14,9 C 87 % 1010,8 hPa 0,0 l/m 0,0 km/h (0 Bft) SW 225 12,8 C 14,9 C
11.07.2012 04:46 14,9 C 87 % 1010,9 hPa 0,0 l/m 0,0 km/h (0 Bft) SW 225 12,8 C 14,9 C
11.07.2012 04:51 15,0 C 87 % 1010,9 hPa 0,0 l/m 0,0 km/h (0 Bft) SW 225 12,9 C 15,0 C
11.07.2012 04:56 15,2 C 87 % 1010,9 hPa 0,0 l/m 0,0 km/h (0 Bft) SW 225 13,0 C 15,2 C
11.07.2012 05:01 15,3 C 87 % 1010,9 hPa 0,0 l/m 2,2 km/h (1 Bft) SW 225 13,1 C 15,3 C
11.07.2012 05:06 15,3 C 87 % 1010,9 hPa 0,0 l/m 5,0 km/h (1 Bft) W-SW 247 13,1 C 15,3 C
11.07.2012 05:11 15,4 C 87 % 1010,9 hPa 0,0 l/m 3,6 km/h (1 Bft) W 270 13,2 C 15,4 C
11.07.2012 05:16 15,4 C 87 % 1011,0 hPa 0,0 l/m 2,2 km/h (1 Bft) W 270 13,2 C 15,4 C
11.07.2012 05:21 15,4 C 87 % 1011,1 hPa 0,0 l/m 2,5 km/h (1 Bft) W 270 13,2 C 15,4 C
11.07.2012 05:26 15,5 C 86 % 1011,0 hPa 0,0 l/m 0,0 km/h (0 Bft) W 270 13,2 C 15,5 C
11.07.2012 05:31 15,6 C 86 % 1011,1 hPa 0,0 l/m 4,3 km/h (1 Bft) W-SW 247 13,3 C 15,6 C
11.07.2012 05:36 15,6 C 86 % 1011,2 hPa 0,0 l/m 2,9 km/h (1 Bft) W 270 13,3 C 15,6 C
11.07.2012 05:41 15,6 C 86 % 1011,0 hPa 0,0 l/m 6,1 km/h (2 Bft) W-SW 247 13,3 C 15,6 C
11.07.2012 05:46 15,6 C 85 % 1011,2 hPa 0,0 l/m 3,6 km/h (1 Bft) W-SW 247 13,1 C 15,6 C
11.07.2012 05:51 15,6 C 85 % 1011,3 hPa 0,0 l/m 5,4 km/h (1 Bft) W-SW 247 13,1 C 15,6 C
11.07.2012 05:56 15,6 C 85 % 1011,3 hPa 0,0 l/m 3,2 km/h (1 Bft) S-SW 202 13,1 C 15,6 C
11.07.2012 06:01 15,9 C 84 % 1011,3 hPa 0,0 l/m 4,7 km/h (1 Bft) W-SW 247 13,2 C 15,9 C
11.07.2012 06:06 15,9 C 84 % 1011,3 hPa 0,0 l/m 2,5 km/h (1 Bft) SW 225 13,2 C 15,9 C
11.07.2012 06:11 15,9 C 84 % 1011,2 hPa 0,0 l/m 4,3 km/h (1 Bft) S-SW 202 13,2 C 15,9 C
11.07.2012 06:16 16,1 C 83 % 1011,3 hPa 0,0 l/m 13,7 km/h (3 Bft) W 270 13,2 C 16,1 C
11.07.2012 06:21 16,3 C 83 % 1011,3 hPa 0,0 l/m 5,8 km/h (2 Bft) W-SW 247 13,4 C 16,3 C
11.07.2012 06:26 17,0 C 82 % 1011,3 hPa 0,0 l/m 3,6 km/h (1 Bft) W 270 13,9 C 17,0 C
11.07.2012 06:31 17,2 C 80 % 1011,3 hPa 0,0 l/m 11,2 km/h (2 Bft) W 270 13,7 C 17,2 C
11.07.2012 06:36 16,8 C 81 % 1011,3 hPa 0,0 l/m 6,1 km/h (2 Bft) W-SW 247 13,5 C 16,8 C
11.07.2012 06:41 16,9 C 81 % 1011,2 hPa 0,0 l/m 5,0 km/h (1 Bft) W-SW 247 13,6 C 16,9 C
11.07.2012 06:46 16,1 C 82 % 1011,3 hPa 0,0 l/m 5,4 km/h (1 Bft) W-SW 247 13,0 C 16,1 C
11.07.2012 06:51 16,1 C 83 % 1011,5 hPa 0,0 l/m 14,8 km/h (3 Bft) W 270 13,2 C 16,1 C
11.07.2012 06:56 16,1 C 84 % 1011,4 hPa 0,0 l/m 4,0 km/h (1 Bft) W-SW 247 13,4 C 16,1 C
11.07.2012 07:01 16,3 C 83 % 1011,5 hPa 0,0 l/m 2,2 km/h (1 Bft) W 270 13,4 C 16,3 C
11.07.2012 07:06 16,2 C 83 % 1011,2 hPa 0,0 l/m 5,0 km/h (1 Bft) W-NW 292 13,3 C 16,2 C
11.07.2012 07:11 15,9 C 84 % 1011,2 hPa 0,0 l/m 2,5 km/h (1 Bft) W 270 13,2 C 15,9 C
11.07.2012 07:16 15,9 C 84 % 1011,2 hPa 0,0 l/m 6,8 km/h (2 Bft) W-SW 247 13,2 C 15,9 C
11.07.2012 07:21 15,9 C 85 % 1011,3 hPa 0,0 l/m 4,0 km/h (1 Bft) W 270 13,4 C 15,9 C
11.07.2012 07:26 15,9 C 85 % 1011,3 hPa 0,0 l/m 4,0 km/h (1 Bft) W 270 13,4 C 15,9 C
11.07.2012 07:31 15,9 C 85 % 1011,3 hPa 0,0 l/m 2,5 km/h (1 Bft) W 270 13,4 C 15,9 C
11.07.2012 07:36 16,1 C 85 % 1011,3 hPa 0,0 l/m 1,8 km/h (1 Bft) W 270 13,6 C 16,1 C
11.07.2012 07:41 16,2 C 85 % 1011,5 hPa 0,0 l/m 4,7 km/h (1 Bft) W 270 13,7 C 16,2 C
11.07.2012 07:46 16,5 C 85 % 1011,6 hPa 0,0 l/m 4,0 km/h (1 Bft) W 270 14,0 C 16,5 C
11.07.2012 07:51 16,7 C 85 % 1011,6 hPa 0,0 l/m 10,8 km/h (2 Bft) W-SW 247 14,2 C 16,7 C
11.07.2012 07:56 16,8 C 84 % 1011,5 hPa 0,0 l/m 14,8 km/h (3 Bft) W-SW 247 14,1 C 16,8 C
11.07.2012 08:01 16,9 C 84 % 1011,6 hPa 0,0 l/m 13,7 km/h (3 Bft) W-SW 247 14,2 C 16,9 C
11.07.2012 08:06 16,9 C 84 % 1011,6 hPa 0,0 l/m 10,1 km/h (2 Bft) W 270 14,2 C 16,9 C
11.07.2012 08:11 16,9 C 84 % 1011,7 hPa 0,0 l/m 6,5 km/h (2 Bft) SW 225 14,2 C 16,9 C
11.07.2012 08:16 16,9 C 84 % 1011,8 hPa 0,0 l/m 9,4 km/h (2 Bft) W-SW 247 14,2 C 16,9 C
11.07.2012 08:21 16,9 C 84 % 1011,8 hPa 0,0 l/m 11,9 km/h (2 Bft) W-SW 247 14,2 C 16,9 C
11.07.2012 08:26 17,0 C 84 % 1011,9 hPa 0,0 l/m 4,3 km/h (1 Bft) SW 225 14,3 C 17,0 C
11.07.2012 08:31 17,0 C 84 % 1012,0 hPa 0,0 l/m 4,7 km/h (1 Bft) SW 225 14,3 C 17,0 C
11.07.2012 08:36 17,2 C 84 % 1011,9 hPa 0,0 l/m 3,6 km/h (1 Bft) SW 225 14,5 C 17,2 C
11.07.2012 08:41 17,0 C 84 % 1011,9 hPa 0,0 l/m 11,5 km/h (2 Bft) W-SW 247 14,3 C 17,0 C
11.07.2012 08:46 16,8 C 84 % 1012,0 hPa 0,0 l/m 8,6 km/h (2 Bft) W-SW 247 14,1 C 16,8 C
11.07.2012 08:51 16,9 C 85 % 1011,9 hPa 0,0 l/m 2,9 km/h (1 Bft) W-SW 247 14,4 C 16,9 C
11.07.2012 08:56 16,9 C 85 % 1011,8 hPa 0,0 l/m 6,8 km/h (2 Bft) SW 225 14,4 C 16,9 C
11.07.2012 09:01 17,0 C 85 % 1011,8 hPa 0,0 l/m 2,5 km/h (1 Bft) SW 225 14,5 C 17,0 C
11.07.2012 09:06 17,3 C 85 % 1011,9 hPa 0,0 l/m 5,0 km/h (1 Bft) W 270 14,8 C 17,3 C
11.07.2012 09:11 17,6 C 84 % 1011,8 hPa 0,0 l/m 1,4 km/h (1 Bft) W 270 14,9 C 17,6 C
11.07.2012 09:16 17,9 C 83 % 1011,9 hPa 0,0 l/m 10,1 km/h (2 Bft) W 270 15,0 C 17,9 C
11.07.2012 09:21 18,2 C 83 % 1011,8 hPa 0,0 l/m 7,9 km/h (2 Bft) W-SW 247 15,3 C 18,2 C
11.07.2012 09:26 19,1 C 82 % 1011,6 hPa 0,0 l/m 6,8 km/h (2 Bft) W-SW 247 16,0 C 19,1 C
11.07.2012 09:31 18,9 C 80 % 1011,6 hPa 0,0 l/m 2,9 km/h (1 Bft) W 270 15,4 C 18,9 C
11.07.2012 09:36 18,8 C 79 % 1011,6 hPa 0,0 l/m 3,2 km/h (1 Bft) W-NW 292 15,1 C 18,8 C
11.07.2012 09:41 18,7 C 79 % 1011,6 hPa 0,0 l/m 7,9 km/h (2 Bft) W-SW 247 15,0 C 18,7 C
11.07.2012 09:46 19,3 C 78 % 1011,6 hPa 0,0 l/m 4,7 km/h (1 Bft) N-NW 337 15,4 C 19,3 C
11.07.2012 09:51 19,9 C 77 % 1011,6 hPa 0,0 l/m 9,7 km/h (2 Bft) W 270 15,7 C 19,9 C
11.07.2012 09:56 20,1 C 74 % 1011,6 hPa 0,0 l/m 14,4 km/h (3 Bft) W-SW 247 15,3 C 20,1 C
11.07.2012 10:01 19,9 C 73 % 1011,6 hPa 0,0 l/m 6,5 km/h (2 Bft) W 270 14,9 C 19,9 C
11.07.2012 10:06 19,9 C 74 % 1011,6 hPa 0,0 l/m 7,2 km/h (2 Bft) W-SW 247 15,1 C 19,9 C
11.07.2012 10:11 19,9 C 73 % 1011,7 hPa 0,0 l/m 16,2 km/h (3 Bft) W-SW 247 14,9 C 19,9 C
11.07.2012 10:16 19,9 C 72 % 1011,7 hPa 0,0 l/m 14,4 km/h (3 Bft) W-SW 247 14,7 C 19,9 C
11.07.2012 10:21 19,9 C 72 % 1011,8 hPa 0,0 l/m 9,4 km/h (2 Bft) SW 225 14,7 C 19,9 C
11.07.2012 10:26 19,9 C 71 % 1011,7 hPa 0,0 l/m 3,6 km/h (1 Bft) W-SW 247 14,5 C 19,9 C
11.07.2012 10:31 20,3 C 71 % 1011,8 hPa 0,0 l/m 10,1 km/h (2 Bft) W-SW 247 14,9 C 20,3 C
11.07.2012 10:36 20,9 C 70 % 1011,8 hPa 0,0 l/m 5,0 km/h (1 Bft) SW 225 15,2 C 20,9 C
11.07.2012 10:41 21,6 C 68 % 1011,7 hPa 0,0 l/m 6,5 km/h (2 Bft) S-SW 202 15,4 C 21,6 C
11.07.2012 10:46 22,1 C 67 % 1011,8 hPa 0,0 l/m 5,4 km/h (1 Bft) S 180 15,7 C 22,1 C
11.07.2012 10:51 22,3 C 66 % 1011,7 hPa 0,0 l/m 8,3 km/h (2 Bft) W-SW 247 15,6 C 22,3 C
11.07.2012 10:56 22,4 C 64 % 1011,7 hPa 0,0 l/m 8,3 km/h (2 Bft) W-SW 247 15,2 C 22,4 C
11.07.2012 11:01 22,1 C 65 % 1011,7 hPa 0,0 l/m 5,4 km/h (1 Bft) W 270 15,2 C 22,1 C
11.07.2012 11:06 21,8 C 64 % 1011,7 hPa 0,0 l/m 9,7 km/h (2 Bft) W-SW 247 14,7 C 21,8 C
11.07.2012 11:11 21,0 C 65 % 1011,8 hPa 0,0 l/m 7,2 km/h (2 Bft) W-SW 247 14,2 C 21,0 C
11.07.2012 11:16 21,2 C 64 % 1011,7 hPa 0,0 l/m 10,1 km/h (2 Bft) W-SW 247 14,1 C 21,2 C
11.07.2012 11:21 21,3 C 62 % 1011,7 hPa 0,0 l/m 19,8 km/h (3 Bft) W 270 13,7 C 21,3 C
11.07.2012 11:26 21,4 C 59 % 1011,7 hPa 0,0 l/m 23,4 km/h (4 Bft) W-SW 247 13,0 C 21,4 C
11.07.2012 11:31 22,0 C 55 % 1011,7 hPa 0,0 l/m 13,7 km/h (3 Bft) W-SW 247 12,5 C 22,0 C
11.07.2012 11:36 22,2 C 56 % 1011,8 hPa 0,0 l/m 7,6 km/h (2 Bft) W-SW 247 13,0 C 22,2 C
11.07.2012 11:41 22,4 C 54 % 1011,7 hPa 0,0 l/m 12,2 km/h (2 Bft) W-SW 247 12,6 C 22,4 C
11.07.2012 11:46 22,4 C 54 % 1011,6 hPa 0,0 l/m 6,5 km/h (2 Bft) W-SW 247 12,6 C 22,4 C
11.07.2012 11:51 21,9 C 55 % 1011,8 hPa 0,0 l/m 4,3 km/h (1 Bft) W-NW 292 12,4 C 21,9 C
11.07.2012 11:56 22,1 C 56 % 1011,8 hPa 0,0 l/m 7,6 km/h (2 Bft) W-SW 247 12,9 C 22,1 C
11.07.2012 12:01 22,3 C 54 % 1011,8 hPa 0,0 l/m 27,4 km/h (4 Bft) W 270 12,5 C 22,3 C
11.07.2012 12:06 22,4 C 54 % 1011,7 hPa 0,0 l/m 11,9 km/h (2 Bft) S-SW 202 12,6 C 22,4 C
11.07.2012 12:11 22,3 C 53 % 1011,9 hPa 0,0 l/m 17,3 km/h (3 Bft) W-SW 247 12,2 C 22,3 C
11.07.2012 12:16 21,9 C 54 % 1011,9 hPa 0,0 l/m 16,6 km/h (3 Bft) W-SW 247 12,2 C 21,9 C
11.07.2012 12:21 21,4 C 54 % 1011,8 hPa 0,0 l/m 10,8 km/h (2 Bft) W-SW 247 11,7 C 21,4 C
11.07.2012 12:26 21,3 C 53 % 1011,8 hPa 0,0 l/m 17,3 km/h (3 Bft) W 270 11,3 C 21,3 C
11.07.2012 12:31 21,3 C 55 % 1011,9 hPa 0,0 l/m 7,9 km/h (2 Bft) W-SW 247 11,9 C 21,3 C
11.07.2012 12:36 21,6 C 54 % 1011,8 hPa 0,0 l/m 4,3 km/h (1 Bft) W-SW 247 11,9 C 21,6 C
11.07.2012 12:41 22,4 C 53 % 1011,7 hPa 0,0 l/m 12,6 km/h (3 Bft) S 180 12,3 C 22,4 C
11.07.2012 12:46 22,5 C 52 % 1011,7 hPa 0,0 l/m 9,7 km/h (2 Bft) S-SO 157 12,1 C 22,5 C
11.07.2012 12:51 22,9 C 51 % 1011,6 hPa 0,0 l/m 21,2 km/h (4 Bft) W-SW 247 12,2 C 22,9 C
11.07.2012 12:56 23,0 C 50 % 1011,6 hPa 0,0 l/m 4,0 km/h (1 Bft) W-SW 247 12,0 C 23,0 C
11.07.2012 13:01 22,9 C 51 % 1011,5 hPa 0,0 l/m 16,6 km/h (3 Bft) SW 225 12,2 C 22,9 C
11.07.2012 13:06 22,8 C 51 % 1011,4 hPa 0,0 l/m 18,4 km/h (3 Bft) W-SW 247 12,1 C 22,8 C
11.07.2012 13:11 22,8 C 51 % 1011,5 hPa 0,0 l/m 19,1 km/h (3 Bft) W 270 12,1 C 22,8 C
11.07.2012 13:16 23,0 C 48 % 1011,5 hPa 0,0 l/m 25,6 km/h (4 Bft) W-SW 247 11,4 C 23,0 C
11.07.2012 13:21 22,6 C 48 % 1011,5 hPa 0,0 l/m 15,5 km/h (3 Bft) NW 315 11,0 C 22,6 C
11.07.2012 13:26 22,3 C 50 % 1011,5 hPa 0,0 l/m 15,5 km/h (3 Bft) W 270 11,4 C 22,3 C
11.07.2012 13:31 22,4 C 49 % 1011,4 hPa 0,0 l/m 28,4 km/h (4 Bft) W-SW 247 11,2 C 22,4 C
11.07.2012 13:36 23,4 C 48 % 1011,4 hPa 0,0 l/m 12,2 km/h (2 Bft) W 270 11,8 C 23,4 C
11.07.2012 13:41 24,4 C 47 % 1011,4 hPa 0,0 l/m 19,4 km/h (3 Bft) S-SW 202 12,3 C 24,4 C
11.07.2012 13:46 23,8 C 46 % 1011,3 hPa 0,0 l/m 11,2 km/h (2 Bft) W-SW 247 11,5 C 23,8 C
11.07.2012 13:51 23,5 C 47 % 1011,1 hPa 0,0 l/m 23,4 km/h (4 Bft) W 270 11,5 C 23,5 C
11.07.2012 13:56 23,8 C 45 % 1011,0 hPa 0,0 l/m 6,5 km/h (2 Bft) W-NW 292 11,1 C 23,8 C
11.07.2012 14:01 23,4 C 44 % 1010,9 hPa 0,0 l/m 14,4 km/h (3 Bft) W-SW 247 10,4 C 23,4 C
11.07.2012 14:06 23,0 C 45 % 1011,0 hPa 0,0 l/m 17,3 km/h (3 Bft) W 270 10,4 C 23,0 C
11.07.2012 14:11 22,6 C 46 % 1011,0 hPa 0,0 l/m 17,6 km/h (3 Bft) S-SW 202 10,4 C 22,6 C
11.07.2012 14:16 22,5 C 46 % 1011,0 hPa 0,0 l/m 9,0 km/h (2 Bft) N 360 10,3 C 22,5 C
11.07.2012 14:21 22,4 C 47 % 1011,1 hPa 0,0 l/m 10,1 km/h (2 Bft) SW 225 10,5 C 22,4 C
11.07.2012 14:26 23,2 C 47 % 1011,0 hPa 0,0 l/m 12,6 km/h (3 Bft) SW 225 11,3 C 23,2 C
11.07.2012 14:31 23,7 C 44 % 1011,1 hPa 0,0 l/m 7,2 km/h (2 Bft) W-SW 247 10,7 C 23,7 C
11.07.2012 14:36 23,3 C 42 % 1011,0 hPa 0,0 l/m 10,8 km/h (2 Bft) S-SW 202 9,7 C 23,3 C
11.07.2012 14:41 23,1 C 41 % 1011,0 hPa 0,0 l/m 10,1 km/h (2 Bft) SO 135 9,1 C 23,1 C
11.07.2012 14:46 22,5 C 42 % 1010,9 hPa 0,0 l/m 12,2 km/h (2 Bft) SW 225 8,9 C 22,5 C
11.07.2012 14:51 22,3 C 42 % 1011,0 hPa 0,0 l/m 19,8 km/h (3 Bft) W 270 8,8 C 22,3 C
11.07.2012 14:56 22,9 C 43 % 1011,0 hPa 0,0 l/m 18,7 km/h (3 Bft) W 270 9,6 C 22,9 C
11.07.2012 15:01 22,9 C 44 % 1011,0 hPa 0,0 l/m 30,6 km/h (5 Bft) W-SW 247 10,0 C 22,9 C
11.07.2012 15:06 22,7 C 45 % 1010,9 hPa 0,0 l/m 6,5 km/h (2 Bft) W-SW 247 10,1 C 22,7 C
11.07.2012 15:11 22,9 C 45 % 1011,0 hPa 0,0 l/m 20,2 km/h (4 Bft) W-SW 247 10,3 C 22,9 C
11.07.2012 15:16 22,6 C 45 % 1011,0 hPa 0,0 l/m 24,5 km/h (4 Bft) W 270 10,1 C 22,6 C
11.07.2012 15:21 22,5 C 46 % 1011,0 hPa 0,0 l/m 15,5 km/h (3 Bft) W 270 10,3 C 22,5 C
11.07.2012 15:26 22,2 C 47 % 1011,1 hPa 0,0 l/m 28,4 km/h (4 Bft) W-SW 247 10,3 C 22,2 C
11.07.2012 15:31 21,9 C 48 % 1011,1 hPa 0,0 l/m 11,2 km/h (2 Bft) W-SW 247 10,4 C 21,9 C
11.07.2012 15:36 22,1 C 50 % 1011,1 hPa 0,0 l/m 13,0 km/h (3 Bft) W 270 11,2 C 22,1 C
11.07.2012 15:41 21,2 C 50 % 1011,2 hPa 0,0 l/m 15,1 km/h (3 Bft) S-SW 202 10,4 C 21,2 C
11.07.2012 15:46 20,4 C 52 % 1011,1 hPa 0,0 l/m 14,4 km/h (3 Bft) W 270 10,2 C 20,4 C
11.07.2012 15:51 20,0 C 54 % 1011,1 hPa 0,0 l/m 18,7 km/h (3 Bft) SW 225 10,4 C 20,0 C
11.07.2012 15:56 20,1 C 55 % 1011,1 hPa 0,0 l/m 11,5 km/h (2 Bft) W-SW 247 10,8 C 20,1 C
11.07.2012 16:01 20,3 C 56 % 1011,1 hPa 0,0 l/m 23,8 km/h (4 Bft) W 270 11,2 C 20,3 C
11.07.2012 16:06 20,4 C 55 % 1011,0 hPa 0,0 l/m 16,9 km/h (3 Bft) SW 225 11,1 C 20,4 C
11.07.2012 16:11 20,4 C 56 % 1011,1 hPa 0,0 l/m 16,6 km/h (3 Bft) W 270 11,3 C 20,4 C
11.07.2012 16:16 20,3 C 57 % 1011,0 hPa 0,0 l/m 4,3 km/h (1 Bft) W 270 11,5 C 20,3 C
11.07.2012 16:21 20,4 C 58 % 1011,0 hPa 0,0 l/m 16,6 km/h (3 Bft) W 270 11,9 C 20,4 C
11.07.2012 16:26 21,1 C 58 % 1011,1 hPa 0,0 l/m 9,7 km/h (2 Bft) W 270 12,5 C 21,1 C
11.07.2012 16:31 22,0 C 52 % 1010,9 hPa 0,0 l/m 7,6 km/h (2 Bft) SW 225 11,7 C 22,0 C
11.07.2012 16:36 22,2 C 52 % 1010,9 hPa 0,0 l/m 23,0 km/h (4 Bft) W-SW 247 11,9 C 22,2 C
11.07.2012 16:41 22,1 C 52 % 1010,9 hPa 0,0 l/m 11,2 km/h (2 Bft) W 270 11,8 C 22,1 C
11.07.2012 16:46 21,4 C 53 % 1010,8 hPa 0,0 l/m 11,9 km/h (2 Bft) W-SW 247 11,4 C 21,4 C
11.07.2012 16:51 21,2 C 54 % 1010,9 hPa 0,0 l/m 7,2 km/h (2 Bft) SW 225 11,5 C 21,2 C
11.07.2012 16:56 20,9 C 56 % 1011,0 hPa 0,0 l/m 12,6 km/h (3 Bft) SW 225 11,8 C 20,9 C
11.07.2012 17:01 20,8 C 55 % 1010,9 hPa 0,0 l/m 10,1 km/h (2 Bft) S-SO 157 11,4 C 20,8 C
11.07.2012 17:06 20,7 C 55 % 1011,0 hPa 0,0 l/m 27,4 km/h (4 Bft) W-SW 247 11,3 C 20,7 C
11.07.2012 17:11 20,9 C 55 % 1011,1 hPa 0,0 l/m 11,2 km/h (2 Bft) W-SW 247 11,5 C 20,9 C
11.07.2012 17:16 21,1 C 53 % 1011,0 hPa 0,0 l/m 7,2 km/h (2 Bft) W-NW 292 11,1 C 21,1 C
11.07.2012 17:21 21,5 C 52 % 1011,0 hPa 0,0 l/m 6,1 km/h (2 Bft) W-SW 247 11,2 C 21,5 C
11.07.2012 17:26 21,1 C 52 % 1011,0 hPa 0,0 l/m 18,0 km/h (3 Bft) SW 225 10,9 C 21,1 C
11.07.2012 17:31 21,5 C 53 % 1011,2 hPa 0,0 l/m 15,8 km/h (3 Bft) W 270 11,5 C 21,5 C
11.07.2012 17:36 21,1 C 53 % 1011,1 hPa 0,0 l/m 20,5 km/h (4 Bft) W 270 11,1 C 21,1 C
11.07.2012 17:41 20,1 C 56 % 1011,3 hPa 0,0 l/m 14,4 km/h (3 Bft) W-NW 292 11,0 C 20,1 C
11.07.2012 17:46 18,7 C 61 % 1011,3 hPa 0,0 l/m 15,1 km/h (3 Bft) NW 315 11,0 C 18,7 C
11.07.2012 17:51 18,2 C 63 % 1011,4 hPa 0,0 l/m 17,3 km/h (3 Bft) W 270 11,0 C 18,2 C
11.07.2012 17:56 17,9 C 64 % 1011,4 hPa 0,0 l/m 11,9 km/h (2 Bft) NW 315 11,0 C 17,9 C
11.07.2012 18:01 17,8 C 65 % 1011,3 hPa 0,0 l/m 14,0 km/h (3 Bft) W-SW 247 11,1 C 17,8 C
11.07.2012 18:06 17,8 C 66 % 1011,5 hPa 0,0 l/m 13,3 km/h (3 Bft) W 270 11,4 C 17,8 C
11.07.2012 18:11 17,6 C 67 % 1011,5 hPa 0,0 l/m 4,0 km/h (1 Bft) W-SW 247 11,4 C 17,6 C
11.07.2012 18:16 17,6 C 67 % 1011,3 hPa 0,0 l/m 12,6 km/h (3 Bft) W-SW 247 11,4 C 17,6 C
11.07.2012 18:21 17,8 C 67 % 1011,4 hPa 0,0 l/m 8,3 km/h (2 Bft) W 270 11,6 C 17,8 C
11.07.2012 18:26 17,9 C 67 % 1011,3 hPa 0,0 l/m 7,2 km/h (2 Bft) W-NW 292 11,7 C 17,9 C
11.07.2012 18:31 18,4 C 66 % 1011,1 hPa 0,0 l/m 9,4 km/h (2 Bft) W-SW 247 11,9 C 18,4 C
11.07.2012 18:36 18,5 C 66 % 1011,2 hPa 0,0 l/m 8,3 km/h (2 Bft) SW 225 12,0 C 18,5 C
11.07.2012 18:41 18,3 C 65 % 1011,0 hPa 0,0 l/m 6,1 km/h (2 Bft) W 270 11,6 C 18,3 C
11.07.2012 18:46 18,4 C 65 % 1011,0 hPa 0,0 l/m 7,6 km/h (2 Bft) W-SW 247 11,7 C 18,4 C
11.07.2012 18:51 18,3 C 64 % 1011,0 hPa 0,0 l/m 6,1 km/h (2 Bft) W-SW 247 11,4 C 18,3 C
11.07.2012 18:56 18,2 C 66 % 1011,0 hPa 0,0 l/m 4,7 km/h (1 Bft) S-SW 202 11,7 C 18,2 C
11.07.2012 19:01 18,2 C 66 % 1011,0 hPa 0,0 l/m 6,5 km/h (2 Bft) SW 225 11,7 C 18,2 C
11.07.2012 19:06 18,1 C 64 % 1011,0 hPa 0,0 l/m 13,3 km/h (3 Bft) W-SW 247 11,2 C 18,1 C
11.07.2012 19:11 17,8 C 65 % 1011,1 hPa 0,0 l/m 6,5 km/h (2 Bft) W-SW 247 11,1 C 17,8 C
11.07.2012 19:16 17,6 C 66 % 1011,1 hPa 0,0 l/m 10,4 km/h (2 Bft) W-SW 247 11,2 C 17,6 C
11.07.2012 19:21 17,4 C 66 % 1010,9 hPa 0,0 l/m 8,3 km/h (2 Bft) W-SW 247 11,0 C 17,4 C
11.07.2012 19:26 17,2 C 70 % 1011,0 hPa 0,0 l/m 6,8 km/h (2 Bft) SW 225 11,7 C 17,2 C
11.07.2012 19:31 16,9 C 72 % 1010,9 hPa 0,0 l/m 14,0 km/h (3 Bft) NW 315 11,8 C 16,9 C
11.07.2012 19:36 16,7 C 74 % 1011,0 hPa 0,0 l/m 5,8 km/h (2 Bft) SW 225 12,0 C 16,7 C
11.07.2012 19:41 16,5 C 74 % 1011,0 hPa 0,0 l/m 8,6 km/h (2 Bft) W-SW 247 11,8 C 16,5 C
11.07.2012 19:46 16,4 C 74 % 1010,8 hPa 0,0 l/m 9,0 km/h (2 Bft) W 270 11,8 C 16,4 C
11.07.2012 19:51 16,3 C 73 % 1010,7 hPa 0,0 l/m 13,3 km/h (3 Bft) W-SW 247 11,4 C 16,3 C
11.07.2012 19:56 16,2 C 73 % 1010,7 hPa 0,0 l/m 5,4 km/h (1 Bft) SW 225 11,4 C 16,2 C
11.07.2012 20:01 16,2 C 74 % 1010,7 hPa 0,0 l/m 10,1 km/h (2 Bft) W-SW 247 11,6 C 16,2 C
11.07.2012 20:06 16,2 C 74 % 1010,9 hPa 0,0 l/m 7,2 km/h (2 Bft) SW 225 11,6 C 16,2 C
11.07.2012 20:11 16,2 C 74 % 1010,8 hPa 0,0 l/m 6,8 km/h (2 Bft) W-SW 247 11,6 C 16,2 C
11.07.2012 20:16 16,2 C 75 % 1010,7 hPa 0,0 l/m 5,8 km/h (2 Bft) W-SW 247 11,8 C 16,2 C
11.07.2012 20:21 16,2 C 75 % 1010,7 hPa 0,0 l/m 9,0 km/h (2 Bft) S-SW 202 11,8 C 16,2 C
11.07.2012 20:26 16,1 C 76 % 1010,9 hPa 0,0 l/m 8,3 km/h (2 Bft) W-SW 247 11,9 C 16,1 C
11.07.2012 20:31 16,0 C 76 % 1011,0 hPa 0,0 l/m 3,6 km/h (1 Bft) W 270 11,8 C 16,0 C
11.07.2012 20:36 15,9 C 76 % 1010,8 hPa 0,0 l/m 4,0 km/h (1 Bft) SW 225 11,7 C 15,9 C
11.07.2012 20:41 15,8 C 76 % 1010,8 hPa 0,0 l/m 14,4 km/h (3 Bft) SW 225 11,6 C 15,8 C
11.07.2012 20:46 15,6 C 77 % 1010,7 hPa 0,0 l/m 7,9 km/h (2 Bft) SW 225 11,6 C 15,6 C
11.07.2012 20:51 15,6 C 77 % 1010,8 hPa 0,0 l/m 6,5 km/h (2 Bft) SW 225 11,6 C 15,6 C
11.07.2012 20:56 15,6 C 78 % 1011,0 hPa 0,0 l/m 7,6 km/h (2 Bft) W 270 11,8 C 15,6 C
11.07.2012 21:01 15,6 C 78 % 1010,8 hPa 0,0 l/m 4,3 km/h (1 Bft) SW 225 11,8 C 15,6 C
11.07.2012 21:06 15,6 C 78 % 1010,9 hPa 0,0 l/m 6,1 km/h (2 Bft) SW 225 11,8 C 15,6 C
11.07.2012 21:11 15,6 C 78 % 1011,0 hPa 0,0 l/m 6,8 km/h (2 Bft) S-SW 202 11,8 C 15,6 C
11.07.2012 21:16 15,4 C 79 % 1011,0 hPa 0,0 l/m 8,3 km/h (2 Bft) SW 225 11,8 C 15,4 C
11.07.2012 21:21 15,4 C 79 % 1011,0 hPa 0,0 l/m 9,4 km/h (2 Bft) S-SW 202 11,8 C 15,4 C
11.07.2012 21:26 15,3 C 79 % 1011,0 hPa 0,0 l/m 9,0 km/h (2 Bft) S 180 11,7 C 15,3 C
11.07.2012 21:31 15,3 C 80 % 1011,1 hPa 0,0 l/m 8,3 km/h (2 Bft) SW 225 11,9 C 15,3 C
11.07.2012 21:36 15,3 C 80 % 1011,0 hPa 0,0 l/m 9,0 km/h (2 Bft) W-SW 247 11,9 C 15,3 C
11.07.2012 21:41 15,2 C 80 % 1011,0 hPa 0,0 l/m 4,3 km/h (1 Bft) W-SW 247 11,8 C 15,2 C
11.07.2012 21:46 15,0 C 80 % 1011,1 hPa 0,0 l/m 12,6 km/h (3 Bft) SW 225 11,6 C 15,0 C
11.07.2012 21:51 14,9 C 80 % 1011,2 hPa 0,0 l/m 6,8 km/h (2 Bft) W-SW 247 11,5 C 14,9 C
11.07.2012 21:56 14,9 C 80 % 1011,2 hPa 0,0 l/m 2,5 km/h (1 Bft) S-SW 202 11,5 C 14,9 C
11.07.2012 22:01 14,9 C 80 % 1011,1 hPa 0,0 l/m 4,7 km/h (1 Bft) SW 225 11,5 C 14,9 C
11.07.2012 22:06 14,9 C 80 % 1011,1 hPa 0,0 l/m 5,8 km/h (2 Bft) W-SW 247 11,5 C 14,9 C
11.07.2012 22:11 14,9 C 81 % 1011,3 hPa 0,0 l/m 4,3 km/h (1 Bft) S-SW 202 11,7 C 14,9 C
11.07.2012 22:16 14,9 C 81 % 1011,3 hPa 0,0 l/m 4,3 km/h (1 Bft) S-SW 202 11,7 C 14,9 C
11.07.2012 22:21 14,9 C 81 % 1011,4 hPa 0,0 l/m 4,3 km/h (1 Bft) S-SW 202 11,7 C 14,9 C
11.07.2012 22:26 14,8 C 82 % 1011,3 hPa 0,0 l/m 1,1 km/h (1 Bft) SW 225 11,8 C 14,8 C
11.07.2012 22:31 14,8 C 82 % 1011,4 hPa 0,0 l/m 4,0 km/h (1 Bft) SW 225 11,8 C 14,8 C
11.07.2012 22:36 14,7 C 82 % 1011,4 hPa 0,0 l/m 6,8 km/h (2 Bft) S-SW 202 11,7 C 14,7 C
11.07.2012 22:41 14,7 C 83 % 1011,3 hPa 0,0 l/m 6,5 km/h (2 Bft) S-SW 202 11,8 C 14,7 C
11.07.2012 22:46 14,6 C 83 % 1011,4 hPa 0,0 l/m 5,0 km/h (1 Bft) SW 225 11,7 C 14,6 C
11.07.2012 22:51 14,7 C 83 % 1011,3 hPa 0,0 l/m 3,6 km/h (1 Bft) S-SW 202 11,8 C 14,7 C
11.07.2012 22:56 14,7 C 83 % 1011,7 hPa 0,0 l/m 5,0 km/h (1 Bft) SW 225 11,8 C 14,7 C
11.07.2012 23:01 14,6 C 83 % 1011,5 hPa 0,0 l/m 4,7 km/h (1 Bft) W-SW 247 11,7 C 14,6 C
11.07.2012 23:06 14,6 C 83 % 1011,5 hPa 0,0 l/m 3,2 km/h (1 Bft) W-SW 247 11,7 C 14,6 C
11.07.2012 23:11 14,5 C 83 % 1011,5 hPa 0,0 l/m 8,6 km/h (2 Bft) SW 225 11,6 C 14,5 C
11.07.2012 23:16 14,5 C 83 % 1011,4 hPa 0,0 l/m 2,5 km/h (1 Bft) SW 225 11,6 C 14,5 C
11.07.2012 23:21 14,5 C 83 % 1011,5 hPa 0,0 l/m 4,0 km/h (1 Bft) S-SW 202 11,6 C 14,5 C
11.07.2012 23:26 14,5 C 83 % 1011,3 hPa 0,0 l/m 2,9 km/h (1 Bft) S-SW 202 11,6 C 14,5 C
11.07.2012 23:31 14,5 C 83 % 1011,4 hPa 0,0 l/m 5,0 km/h (1 Bft) S-SW 202 11,6 C 14,5 C
11.07.2012 23:36 14,4 C 83 % 1011,6 hPa 0,0 l/m 4,7 km/h (1 Bft) S 180 11,5 C 14,4 C
11.07.2012 23:41 14,4 C 83 % 1011,6 hPa 0,0 l/m 6,1 km/h (2 Bft) SW 225 11,5 C 14,4 C
11.07.2012 23:46 14,4 C 83 % 1011,5 hPa 0,0 l/m 4,0 km/h (1 Bft) S 180 11,5 C 14,4 C
11.07.2012 23:51 14,3 C 83 % 1011,5 hPa 0,0 l/m 7,2 km/h (2 Bft) S-SW 202 11,5 C 14,3 C
11.07.2012 23:56 14,3 C 84 % 1011,2 hPa 0,0 l/m 3,6 km/h (1 Bft) S 180 11,6 C 14,3 C
_ Min-Zeit 23:51 14:41 19:51 - 00:06 - - 14:51 23:51
Minimum _ 14,3 C 41 % 1010,7 hPa - 0,0 km/h (0 Bft) - - 8,8 C 14,3 C
_ Max-Zeit 13:41 03:01 08:31 00:01 15:01 - - 09:26 13:41
Maximum _ 24,4 C 87 % 1012,0 hPa 0,0 l/m 30,6 km/h
W-SW (5 Bft)
- - 16,0 C 24,4 C
Durchschnitt _ 18,1 C 72 % 1011,3 hPa #0,0 l/m 7,7 km/h (2 Bft) W-SW - 12,6 C 18,1 C
(c) by David Heller